createdAt,value
2023-05-23T00:02:30.287Z,951.16
2023-05-23T00:07:31.910Z,951.06
2023-05-23T00:12:33.809Z,951.07
2023-05-23T00:17:35.482Z,951.12
2023-05-23T00:22:37.083Z,951.12
2023-05-23T00:27:38.665Z,951.12
2023-05-23T00:32:39.956Z,951.07
2023-05-23T00:37:41.142Z,951.08
2023-05-23T00:42:42.581Z,951.18
2023-05-23T00:47:44.321Z,951.24
2023-05-23T00:52:46.019Z,951.3
2023-05-23T00:57:47.510Z,951.26
2023-05-23T01:02:49.158Z,951.3
2023-05-23T01:07:50.586Z,951.25
2023-05-23T01:12:52.152Z,951.26
2023-05-23T01:17:54.256Z,951.32
2023-05-23T01:22:56.245Z,951.32
2023-05-23T01:27:57.567Z,951.36
2023-05-23T01:32:59.189Z,951.34
2023-05-23T01:43:02.400Z,951.31
2023-05-23T02:13:22.514Z,951.35
2023-05-23T03:58:49.930Z,951.83
2023-05-23T04:08:53.581Z,951.99
2023-05-23T04:23:59.543Z,952.06
2023-05-23T04:29:00.745Z,952.12
2023-05-23T04:34:02.778Z,952.15
2023-05-23T04:39:04.538Z,952.18
2023-05-23T04:44:06.387Z,952.27
2023-05-23T04:49:07.608Z,952.28
2023-05-23T04:54:09.635Z,952.3
2023-05-23T04:59:11.712Z,952.3
2023-05-23T05:04:13.197Z,952.27
2023-05-23T05:09:14.984Z,952.26
2023-05-23T05:14:16.720Z,952.28
2023-05-23T05:19:18.585Z,952.23
2023-05-23T05:24:19.800Z,952.28
2023-05-23T05:29:21.687Z,952.33
2023-05-23T05:34:23.774Z,952.4
2023-05-23T05:39:25.464Z,952.31
2023-05-23T05:44:27.232Z,952.29
2023-05-23T05:49:29.309Z,952.33
2023-05-23T05:54:31.012Z,952.29
2023-05-23T05:59:33.100Z,952.28
2023-05-23T06:04:34.374Z,952.24
2023-05-23T06:09:35.693Z,952.27
2023-05-23T06:14:37.258Z,952.3
2023-05-23T06:19:39.495Z,952.4
2023-05-23T06:24:41.478Z,952.46
2023-05-23T06:29:43.023Z,952.42
2023-05-23T06:34:45.042Z,952.43
2023-05-23T06:39:46.797Z,952.4
2023-05-23T06:44:48.274Z,952.44
2023-05-23T06:49:49.718Z,952.39
2023-05-23T06:54:51.279Z,952.4
2023-05-23T06:59:53.103Z,952.49
2023-05-23T07:04:54.890Z,952.54
2023-05-23T07:09:56.213Z,952.62
2023-05-23T07:14:57.378Z,952.62
2023-05-23T07:19:58.672Z,952.68
2023-05-23T07:25:00.813Z,952.63
2023-05-23T07:30:02.649Z,952.55
2023-05-23T07:35:04.060Z,952.6
2023-05-23T07:40:05.535Z,952.66
2023-05-23T07:45:07.291Z,952.59
2023-05-23T07:50:08.780Z,952.65
2023-05-23T07:55:10.970Z,952.73
2023-05-23T08:00:12.571Z,952.73
2023-05-23T08:05:14.665Z,952.66
2023-05-23T08:10:16.598Z,952.75
2023-05-23T08:15:18.490Z,952.86
2023-05-23T08:20:20.310Z,952.8
2023-05-23T08:25:22.290Z,952.82
2023-05-23T08:30:30.011Z,952.85
2023-05-23T08:35:31.427Z,952.8
2023-05-23T08:40:32.690Z,952.9
2023-05-23T08:45:34.060Z,952.9
2023-05-23T08:50:35.433Z,953.07
2023-05-23T08:55:36.737Z,953.11
2023-05-23T09:00:38.381Z,953.16
2023-05-23T09:05:39.627Z,953.27
2023-05-23T09:10:41.899Z,953.13
2023-05-23T09:15:43.399Z,953.07
2023-05-23T09:20:44.601Z,953
2023-05-23T09:25:46.782Z,953.07
2023-05-23T09:30:48.489Z,953.1
2023-05-23T09:35:50.135Z,953.08
2023-05-23T09:40:51.517Z,953.1
2023-05-23T09:45:52.846Z,953
2023-05-23T09:50:54.795Z,953
2023-05-23T09:55:56.590Z,953.06
2023-05-23T10:00:58.327Z,953.06
2023-05-23T10:06:00.077Z,953.13
2023-05-23T10:11:01.452Z,953.06
2023-05-23T10:16:03.362Z,953.04
2023-05-23T10:21:05.255Z,952.97
2023-05-23T10:26:07.056Z,953.07
2023-05-23T10:31:08.749Z,952.97
2023-05-23T10:36:10.883Z,952.95
2023-05-23T10:41:12.966Z,952.82
2023-05-23T10:46:14.239Z,952.97
2023-05-23T10:51:15.858Z,952.88
2023-05-23T10:56:17.356Z,952.82
2023-05-23T11:01:18.813Z,952.83
2023-05-23T11:06:20.372Z,952.85
2023-05-23T11:11:21.913Z,952.78
2023-05-23T11:16:23.960Z,952.81
2023-05-23T11:21:25.552Z,952.79
2023-05-23T11:26:27.166Z,952.79
2023-05-23T11:31:28.493Z,952.75
2023-05-23T11:36:30.379Z,952.79
2023-05-23T11:41:32.541Z,952.84
2023-05-23T11:46:34.691Z,952.79
2023-05-23T11:51:36.674Z,952.78
2023-05-23T11:56:38.388Z,952.78
2023-05-23T12:01:40.407Z,952.73
2023-05-23T12:06:42.124Z,952.88
2023-05-23T12:11:43.529Z,952.81
2023-05-23T12:16:45.756Z,952.77
2023-05-23T12:21:47.686Z,952.69
2023-05-23T12:26:49.351Z,952.73
2023-05-23T12:31:51.240Z,952.7
2023-05-23T12:36:57.392Z,952.62
2023-05-23T12:41:53.660Z,952.67
2023-05-23T12:46:55.211Z,952.64
2023-05-23T12:51:57.321Z,952.72
2023-05-23T12:56:59.040Z,952.7
2023-05-23T13:02:00.949Z,952.68
2023-05-23T13:07:02.999Z,952.7
2023-05-23T13:12:04.553Z,952.7
2023-05-23T13:17:06.114Z,952.83
2023-05-23T13:22:07.280Z,952.79
2023-05-23T13:27:08.908Z,952.71
2023-05-23T13:32:10.800Z,952.67
2023-05-23T13:37:12.158Z,952.63
2023-05-23T13:42:14.063Z,952.65
2023-05-23T13:47:15.300Z,952.52
2023-05-23T13:52:16.779Z,952.47
2023-05-23T13:57:18.091Z,952.47
2023-05-23T14:02:19.676Z,952.43
2023-05-23T14:07:21.596Z,952.5
2023-05-23T14:12:23.471Z,952.53
2023-05-23T14:17:25.224Z,952.55
2023-05-23T14:22:26.413Z,952.54
2023-05-23T14:27:28.421Z,952.7
2023-05-23T14:32:30.440Z,952.67
2023-05-23T14:37:32.433Z,952.65
2023-05-23T14:42:33.885Z,952.63
2023-05-23T14:47:35.802Z,952.67
2023-05-23T14:52:37.874Z,952.66
2023-05-23T14:57:39.271Z,952.69
2023-05-23T15:02:40.974Z,952.69
2023-05-23T15:07:42.739Z,952.74
2023-05-23T15:12:43.940Z,952.79
2023-05-23T15:17:45.338Z,952.78
2023-05-23T15:22:46.734Z,952.85
2023-05-23T15:27:48.411Z,952.9
2023-05-23T15:32:50.238Z,952.87
2023-05-23T15:37:52.170Z,952.94
2023-05-23T15:42:53.575Z,952.97
2023-05-23T15:47:55.665Z,953.03
2023-05-23T15:52:57.705Z,953.07
2023-05-23T16:33:11.405Z,953.26
2023-05-23T17:13:25.398Z,953.3
2023-05-23T18:08:45.549Z,953.8
2023-05-23T18:33:54.308Z,953.92
2023-05-23T18:48:59.556Z,954.09
2023-05-23T18:54:01.021Z,954.21
2023-05-23T18:59:03.126Z,954.34
2023-05-23T19:04:05.161Z,954.36
2023-05-23T19:09:06.856Z,954.41
2023-05-23T19:14:08.047Z,954.42
2023-05-23T19:19:09.451Z,954.48
2023-05-23T19:24:11.327Z,954.55
2023-05-23T19:29:12.819Z,954.63
2023-05-23T19:34:14.883Z,954.69
2023-05-23T19:39:16.274Z,954.74
2023-05-23T19:44:17.882Z,954.82
2023-05-23T19:49:19.937Z,954.84
2023-05-23T19:54:21.770Z,954.87
2023-05-23T19:59:23.281Z,954.95
2023-05-23T20:04:25.220Z,955
2023-05-23T20:09:27.152Z,955.04
2023-05-23T20:14:29.426Z,955.07
2023-05-23T20:19:30.691Z,955.06
2023-05-23T20:24:32.437Z,955.07
2023-05-23T20:29:33.610Z,955.14
2023-05-23T20:34:35.404Z,955.17
2023-05-23T20:39:37.494Z,955.17
2023-05-23T20:44:38.989Z,955.21
2023-05-23T20:49:40.974Z,955.26
2023-05-23T20:54:42.962Z,955.26
2023-05-23T20:59:44.973Z,955.22
2023-05-23T21:04:46.744Z,955.37
2023-05-23T21:09:48.290Z,955.42
2023-05-23T21:14:50.311Z,955.43
2023-05-23T21:19:51.904Z,955.44
2023-05-23T21:24:53.828Z,955.45
2023-05-23T21:29:55.458Z,955.47
2023-05-23T21:34:57.333Z,955.43
2023-05-23T21:39:59.310Z,955.49
2023-05-23T21:45:00.803Z,955.54
2023-05-23T21:50:02.296Z,955.59
2023-05-23T21:55:04.036Z,955.69
2023-05-23T22:00:05.834Z,955.75
2023-05-23T22:05:07.600Z,955.73
2023-05-23T22:10:09.311Z,955.76
2023-05-23T22:15:10.674Z,955.79
2023-05-23T22:20:12.398Z,955.8
2023-05-23T22:25:14.038Z,955.84
2023-05-23T22:30:15.330Z,955.92
2023-05-23T22:35:16.562Z,955.88
2023-05-23T22:40:17.763Z,955.89
2023-05-23T22:45:19.678Z,955.88
2023-05-23T22:50:20.904Z,955.8
2023-05-23T22:55:22.123Z,955.77
2023-05-23T23:00:23.884Z,955.8
2023-05-23T23:05:25.738Z,955.75
2023-05-23T23:10:27.222Z,955.71
2023-05-23T23:15:28.884Z,955.69
2023-05-23T23:20:30.638Z,955.7
2023-05-23T23:25:31.870Z,955.68
2023-05-23T23:30:33.970Z,955.63
2023-05-23T23:35:35.818Z,955.7
2023-05-23T23:40:37.264Z,955.64
2023-05-23T23:45:38.791Z,955.69
2023-05-23T23:50:40.261Z,955.7
2023-05-23T23:55:41.440Z,955.65
